Camp Rogers, Georgia
Current Conditions -  °F | °C
As of 4:58 PM on Thursday 23 Oct 2014 (Local Time) from KLSF Reporting Station
Clear Clear  
Wind Chill: 72°   Ceiling: Unl
Heat Index: 72°   Visibility: 10mi
Dew Point: 41°   Wind: 6mph
Humidity: 32%   Direction: NA
Pressure: 30.02"   Gusts: NA
Location:  32.373°N, 84.7961°W
Report Text: KLSF 232058Z AUTO VRB05KT 10SM CLR 22/05 A3002 RMK AO2 SLP168 T02240051 56020
Loading
Personal Weather Stations






























Interactive Weather Map
Tropical Storm Tracking
New forecast layout! Learn more

10-Day Weather Forecast

Advertisements
Track Severe Weather on mobile